sensor_id;sensor_type;location;lat;lon;timestamp;temperature;humidity
26691;DHT22;14307;51.718;8.938;2023-09-12T00:01:10;18.20;99.90
26691;DHT22;14307;51.718;8.938;2023-09-12T00:03:37;18.10;99.90
26691;DHT22;14307;51.718;8.938;2023-09-12T00:06:04;18.20;99.90
26691;DHT22;14307;51.718;8.938;2023-09-12T00:08:31;18.30;99.90
26691;DHT22;14307;51.718;8.938;2023-09-12T00:11:09;18.30;99.90
26691;DHT22;14307;51.718;8.938;2023-09-12T00:13:39;18.20;99.90
26691;DHT22;14307;51.718;8.938;2023-09-12T00:16:10;18.20;99.90
26691;DHT22;14307;51.718;8.938;2023-09-12T00:18:38;18.20;99.90
26691;DHT22;14307;51.718;8.938;2023-09-12T00:21:05;18.20;99.90
26691;DHT22;14307;51.718;8.938;2023-09-12T00:23:32;17.90;99.90
26691;DHT22;14307;51.718;8.938;2023-09-12T00:25:58;18.00;99.90
26691;DHT22;14307;51.718;8.938;2023-09-12T00:28:25;17.90;99.90
26691;DHT22;14307;51.718;8.938;2023-09-12T00:30:52;18.00;99.90
26691;DHT22;14307;51.718;8.938;2023-09-12T00:33:19;18.10;99.90
26691;DHT22;14307;51.718;8.938;2023-09-12T00:35:46;18.20;99.90
26691;DHT22;14307;51.718;8.938;2023-09-12T00:38:13;18.20;99.90
26691;DHT22;14307;51.718;8.938;2023-09-12T00:40:40;18.10;99.90
26691;DHT22;14307;51.718;8.938;2023-09-12T00:43:06;17.90;99.90
26691;DHT22;14307;51.718;8.938;2023-09-12T00:45:34;17.80;99.90
26691;DHT22;14307;51.718;8.938;2023-09-12T00:48:03;17.80;99.90
26691;DHT22;14307;51.718;8.938;2023-09-12T00:50:31;17.70;99.90
26691;DHT22;14307;51.718;8.938;2023-09-12T00:52:59;17.80;99.90
26691;DHT22;14307;51.718;8.938;2023-09-12T00:55:28;17.80;99.90
26691;DHT22;14307;51.718;8.938;2023-09-12T00:57:55;17.80;99.90
26691;DHT22;14307;51.718;8.938;2023-09-12T01:00:22;17.80;99.90
26691;DHT22;14307;51.718;8.938;2023-09-12T01:02:49;17.80;99.90
26691;DHT22;14307;51.718;8.938;2023-09-12T01:05:19;17.60;99.90
26691;DHT22;14307;51.718;8.938;2023-09-12T01:07:47;17.60;99.90
26691;DHT22;14307;51.718;8.938;2023-09-12T01:10:13;17.40;99.90
26691;DHT22;14307;51.718;8.938;2023-09-12T01:12:40;17.50;99.90
26691;DHT22;14307;51.718;8.938;2023-09-12T01:15:07;17.50;99.90
26691;DHT22;14307;51.718;8.938;2023-09-12T01:17:44;17.50;99.90
26691;DHT22;14307;51.718;8.938;2023-09-12T01:20:18;17.60;99.90
26691;DHT22;14307;51.718;8.938;2023-09-12T01:22:56;17.40;99.90
26691;DHT22;14307;51.718;8.938;2023-09-12T01:25:52;17.30;99.90
26691;DHT22;14307;51.718;8.938;2023-09-12T01:28:24;17.20;99.90
26691;DHT22;14307;51.718;8.938;2023-09-12T01:30:54;17.20;99.90
26691;DHT22;14307;51.718;8.938;2023-09-12T01:33:21;17.20;99.90
26691;DHT22;14307;51.718;8.938;2023-09-12T01:35:48;17.30;99.90
26691;DHT22;14307;51.718;8.938;2023-09-12T01:38:15;17.30;99.90
26691;DHT22;14307;51.718;8.938;2023-09-12T01:40:50;17.30;99.90
26691;DHT22;14307;51.718;8.938;2023-09-12T01:43:20;17.20;99.90
26691;DHT22;14307;51.718;8.938;2023-09-12T01:45:50;17.20;99.90
26691;DHT22;14307;51.718;8.938;2023-09-12T01:48:21;17.20;99.90
26691;DHT22;14307;51.718;8.938;2023-09-12T01:50:48;17.30;99.90
26691;DHT22;14307;51.718;8.938;2023-09-12T01:53:16;17.30;99.90
26691;DHT22;14307;51.718;8.938;2023-09-12T01:55:43;17.30;99.90
26691;DHT22;14307;51.718;8.938;2023-09-12T01:58:12;17.10;99.90
26691;DHT22;14307;51.718;8.938;2023-09-12T02:00:39;17.10;99.90
26691;DHT22;14307;51.718;8.938;2023-09-12T02:03:06;17.30;99.90
26691;DHT22;14307;51.718;8.938;2023-09-12T02:05:33;17.40;99.90
26691;DHT22;14307;51.718;8.938;2023-09-12T02:08:00;17.40;99.90
26691;DHT22;14307;51.718;8.938;2023-09-12T02:10:28;17.40;99.90
26691;DHT22;14307;51.718;8.938;2023-09-12T02:12:54;17.50;99.90
26691;DHT22;14307;51.718;8.938;2023-09-12T02:15:21;17.50;99.90
26691;DHT22;14307;51.718;8.938;2023-09-12T02:17:48;17.60;99.90
26691;DHT22;14307;51.718;8.938;2023-09-12T02:20:17;17.50;99.90
26691;DHT22;14307;51.718;8.938;2023-09-12T02:22:44;17.50;99.90
26691;DHT22;14307;51.718;8.938;2023-09-12T02:25:11;17.50;99.90
26691;DHT22;14307;51.718;8.938;2023-09-12T02:27:38;17.60;99.90
26691;DHT22;14307;51.718;8.938;2023-09-12T02:30:05;17.60;99.90
26691;DHT22;14307;51.718;8.938;2023-09-12T02:32:32;17.50;99.90
26691;DHT22;14307;51.718;8.938;2023-09-12T02:34:59;17.50;99.90
26691;DHT22;14307;51.718;8.938;2023-09-12T02:37:26;17.60;99.90
26691;DHT22;14307;51.718;8.938;2023-09-12T02:39:53;17.50;99.90
26691;DHT22;14307;51.718;8.938;2023-09-12T02:42:20;17.50;99.90
26691;DHT22;14307;51.718;8.938;2023-09-12T02:44:47;17.40;99.90
26691;DHT22;14307;51.718;8.938;2023-09-12T02:47:14;17.40;99.90
26691;DHT22;14307;51.718;8.938;2023-09-12T02:49:41;17.40;99.90
26691;DHT22;14307;51.718;8.938;2023-09-12T02:52:07;17.40;99.90
26691;DHT22;14307;51.718;8.938;2023-09-12T02:54:34;17.40;99.90
26691;DHT22;14307;51.718;8.938;2023-09-12T02:57:01;17.50;99.90
26691;DHT22;14307;51.718;8.938;2023-09-12T02:59:29;17.60;99.90
26691;DHT22;14307;51.718;8.938;2023-09-12T03:01:56;17.60;99.90
26691;DHT22;14307;51.718;8.938;2023-09-12T03:04:25;17.70;99.90
26691;DHT22;14307;51.718;8.938;2023-09-12T03:06:52;17.70;99.90
26691;DHT22;14307;51.718;8.938;2023-09-12T03:09:19;17.80;99.90
26691;DHT22;14307;51.718;8.938;2023-09-12T03:11:46;17.80;99.90
26691;DHT22;14307;51.718;8.938;2023-09-12T03:14:13;17.90;99.90
26691;DHT22;14307;51.718;8.938;2023-09-12T03:16:39;17.90;99.90
26691;DHT22;14307;51.718;8.938;2023-09-12T03:19:06;18.00;99.90
26691;DHT22;14307;51.718;8.938;2023-09-12T03:21:33;18.10;99.90
26691;DHT22;14307;51.718;8.938;2023-09-12T03:24:00;18.10;99.90
26691;DHT22;14307;51.718;8.938;2023-09-12T03:26:27;18.10;99.90
26691;DHT22;14307;51.718;8.938;2023-09-12T03:28:53;18.00;99.90
26691;DHT22;14307;51.718;8.938;2023-09-12T03:31:21;18.00;99.90
26691;DHT22;14307;51.718;8.938;2023-09-12T03:33:48;18.10;99.90
26691;DHT22;14307;51.718;8.938;2023-09-12T03:36:18;18.10;99.90
26691;DHT22;14307;51.718;8.938;2023-09-12T03:38:45;18.00;99.90
26691;DHT22;14307;51.718;8.938;2023-09-12T03:41:12;18.10;99.90
26691;DHT22;14307;51.718;8.938;2023-09-12T03:43:38;18.10;99.90
26691;DHT22;14307;51.718;8.938;2023-09-12T03:46:05;17.90;99.90
26691;DHT22;14307;51.718;8.938;2023-09-12T03:48:33;17.80;99.90
26691;DHT22;14307;51.718;8.938;2023-09-12T03:51:00;17.80;99.90
26691;DHT22;14307;51.718;8.938;2023-09-12T03:53:27;17.80;99.90
26691;DHT22;14307;51.718;8.938;2023-09-12T03:55:54;17.80;99.90
26691;DHT22;14307;51.718;8.938;2023-09-12T03:58:21;17.90;99.90
26691;DHT22;14307;51.718;8.938;2023-09-12T04:00:49;17.80;99.90
26691;DHT22;14307;51.718;8.938;2023-09-12T04:03:16;17.80;99.90
26691;DHT22;14307;51.718;8.938;2023-09-12T04:05:45;17.80;99.90
26691;DHT22;14307;51.718;8.938;2023-09-12T04:08:12;17.70;99.90
26691;DHT22;14307;51.718;8.938;2023-09-12T04:10:39;17.70;99.90
26691;DHT22;14307;51.718;8.938;2023-09-12T04:13:06;17.80;99.90
26691;DHT22;14307;51.718;8.938;2023-09-12T04:15:32;17.80;99.90
26691;DHT22;14307;51.718;8.938;2023-09-12T04:18:00;17.60;99.90
26691;DHT22;14307;51.718;8.938;2023-09-12T04:20:28;17.60;99.90
26691;DHT22;14307;51.718;8.938;2023-09-12T04:22:54;17.60;99.90
26691;DHT22;14307;51.718;8.938;2023-09-12T04:25:21;17.80;99.90
26691;DHT22;14307;51.718;8.938;2023-09-12T04:27:48;17.70;99.90
26691;DHT22;14307;51.718;8.938;2023-09-12T04:30:15;17.70;99.90
26691;DHT22;14307;51.718;8.938;2023-09-12T04:32:42;17.70;99.90
26691;DHT22;14307;51.718;8.938;2023-09-12T04:35:09;17.80;99.90
26691;DHT22;14307;51.718;8.938;2023-09-12T04:37:36;17.90;99.90
26691;DHT22;14307;51.718;8.938;2023-09-12T04:40:04;18.20;99.90
26691;DHT22;14307;51.718;8.938;2023-09-12T04:42:33;18.30;99.90
26691;DHT22;14307;51.718;8.938;2023-09-12T04:45:00;18.40;99.90
26691;DHT22;14307;51.718;8.938;2023-09-12T04:47:26;18.40;99.90
26691;DHT22;14307;51.718;8.938;2023-09-12T04:49:54;18.50;99.90
26691;DHT22;14307;51.718;8.938;2023-09-12T04:52:21;18.40;99.90
26691;DHT22;14307;51.718;8.938;2023-09-12T04:54:47;18.40;99.90
26691;DHT22;14307;51.718;8.938;2023-09-12T04:57:14;18.40;99.90
26691;DHT22;14307;51.718;8.938;2023-09-12T04:59:41;18.50;99.90
26691;DHT22;14307;51.718;8.938;2023-09-12T05:02:08;18.70;99.90
26691;DHT22;14307;51.718;8.938;2023-09-12T05:04:35;18.70;99.90
26691;DHT22;14307;51.718;8.938;2023-09-12T05:07:02;18.70;99.90
26691;DHT22;14307;51.718;8.938;2023-09-12T05:09:28;18.60;99.90
26691;DHT22;14307;51.718;8.938;2023-09-12T05:11:55;18.60;99.90
26691;DHT22;14307;51.718;8.938;2023-09-12T05:14:22;18.80;99.90
26691;DHT22;14307;51.718;8.938;2023-09-12T05:16:49;18.90;99.90
26691;DHT22;14307;51.718;8.938;2023-09-12T05:19:16;18.90;99.90
26691;DHT22;14307;51.718;8.938;2023-09-12T05:21:42;19.00;99.90
26691;DHT22;14307;51.718;8.938;2023-09-12T05:24:10;19.00;99.90
26691;DHT22;14307;51.718;8.938;2023-09-12T05:26:37;18.90;99.90
26691;DHT22;14307;51.718;8.938;2023-09-12T05:29:04;18.80;99.90
26691;DHT22;14307;51.718;8.938;2023-09-12T05:31:32;18.80;99.90
26691;DHT22;14307;51.718;8.938;2023-09-12T05:33:59;18.80;99.90
26691;DHT22;14307;51.718;8.938;2023-09-12T05:36:26;18.80;99.90
26691;DHT22;14307;51.718;8.938;2023-09-12T05:38:53;18.80;99.90
26691;DHT22;14307;51.718;8.938;2023-09-12T05:41:20;18.80;99.90
26691;DHT22;14307;51.718;8.938;2023-09-12T05:43:47;18.90;99.90
26691;DHT22;14307;51.718;8.938;2023-09-12T05:46:13;18.90;99.90
26691;DHT22;14307;51.718;8.938;2023-09-12T05:48:40;18.90;99.90
26691;DHT22;14307;51.718;8.938;2023-09-12T05:51:07;19.00;99.90
26691;DHT22;14307;51.718;8.938;2023-09-12T05:53:34;19.10;99.90
26691;DHT22;14307;51.718;8.938;2023-09-12T05:56:01;19.20;99.90
26691;DHT22;14307;51.718;8.938;2023-09-12T05:58:28;19.20;99.90
26691;DHT22;14307;51.718;8.938;2023-09-12T06:00:56;19.20;99.90
26691;DHT22;14307;51.718;8.938;2023-09-12T06:03:23;19.40;99.90
26691;DHT22;14307;51.718;8.938;2023-09-12T06:05:50;19.50;99.90
26691;DHT22;14307;51.718;8.938;2023-09-12T06:08:17;19.40;99.90
26691;DHT22;14307;51.718;8.938;2023-09-12T06:10:44;19.50;99.90
26691;DHT22;14307;51.718;8.938;2023-09-12T06:13:11;19.70;99.90
26691;DHT22;14307;51.718;8.938;2023-09-12T06:15:39;19.70;99.90
26691;DHT22;14307;51.718;8.938;2023-09-12T06:18:07;19.70;99.90
26691;DHT22;14307;51.718;8.938;2023-09-12T06:20:35;19.70;99.90
26691;DHT22;14307;51.718;8.938;2023-09-12T06:23:02;19.80;99.90
26691;DHT22;14307;51.718;8.938;2023-09-12T06:25:30;19.90;99.90
26691;DHT22;14307;51.718;8.938;2023-09-12T06:27:56;19.90;99.90
26691;DHT22;14307;51.718;8.938;2023-09-12T06:30:23;19.90;99.90
26691;DHT22;14307;51.718;8.938;2023-09-12T06:32:50;19.90;99.90
26691;DHT22;14307;51.718;8.938;2023-09-12T06:35:17;19.90;99.90
26691;DHT22;14307;51.718;8.938;2023-09-12T06:37:44;20.00;99.90
26691;DHT22;14307;51.718;8.938;2023-09-12T06:40:10;19.90;99.90
26691;DHT22;14307;51.718;8.938;2023-09-12T06:42:37;20.10;99.90
26691;DHT22;14307;51.718;8.938;2023-09-12T06:45:04;20.20;99.90
26691;DHT22;14307;51.718;8.938;2023-09-12T06:47:31;20.20;99.90
26691;DHT22;14307;51.718;8.938;2023-09-12T06:49:58;20.40;99.90
26691;DHT22;14307;51.718;8.938;2023-09-12T06:52:25;20.40;99.90
26691;DHT22;14307;51.718;8.938;2023-09-12T06:54:52;20.40;99.90
26691;DHT22;14307;51.718;8.938;2023-09-12T06:57:19;20.50;99.90
26691;DHT22;14307;51.718;8.938;2023-09-12T06:59:46;20.70;99.90
26691;DHT22;14307;51.718;8.938;2023-09-12T07:02:14;20.80;99.90
26691;DHT22;14307;51.718;8.938;2023-09-12T07:04:41;20.80;99.90
26691;DHT22;14307;51.718;8.938;2023-09-12T07:07:08;20.70;99.90
26691;DHT22;14307;51.718;8.938;2023-09-12T07:09:35;20.80;99.90
26691;DHT22;14307;51.718;8.938;2023-09-12T07:12:02;20.70;99.90
26691;DHT22;14307;51.718;8.938;2023-09-12T07:14:29;20.70;99.90
26691;DHT22;14307;51.718;8.938;2023-09-12T07:16:57;20.80;99.90
26691;DHT22;14307;51.718;8.938;2023-09-12T07:19:24;21.00;99.90
26691;DHT22;14307;51.718;8.938;2023-09-12T07:21:51;21.20;99.90
26691;DHT22;14307;51.718;8.938;2023-09-12T07:24:18;21.10;99.90
26691;DHT22;14307;51.718;8.938;2023-09-12T07:26:44;21.30;99.90
26691;DHT22;14307;51.718;8.938;2023-09-12T07:29:13;21.20;99.90
26691;DHT22;14307;51.718;8.938;2023-09-12T07:31:40;21.10;99.90
26691;DHT22;14307;51.718;8.938;2023-09-12T07:34:07;21.10;99.90
26691;DHT22;14307;51.718;8.938;2023-09-12T07:36:35;21.10;99.90
26691;DHT22;14307;51.718;8.938;2023-09-12T07:39:03;21.30;99.90
26691;DHT22;14307;51.718;8.938;2023-09-12T07:41:30;21.20;99.90
26691;DHT22;14307;51.718;8.938;2023-09-12T07:43:57;21.30;99.90
26691;DHT22;14307;51.718;8.938;2023-09-12T07:46:24;21.30;99.90
26691;DHT22;14307;51.718;8.938;2023-09-12T07:48:51;21.60;99.90
26691;DHT22;14307;51.718;8.938;2023-09-12T07:51:19;21.90;99.90
26691;DHT22;14307;51.718;8.938;2023-09-12T07:53:46;21.90;99.90
26691;DHT22;14307;51.718;8.938;2023-09-12T07:56:12;22.00;99.90
26691;DHT22;14307;51.718;8.938;2023-09-12T07:58:39;22.20;99.90
26691;DHT22;14307;51.718;8.938;2023-09-12T08:01:07;22.30;99.90
26691;DHT22;14307;51.718;8.938;2023-09-12T08:03:35;22.40;99.90
26691;DHT22;14307;51.718;8.938;2023-09-12T08:06:03;22.30;99.90
26691;DHT22;14307;51.718;8.938;2023-09-12T08:08:30;22.30;99.90
26691;DHT22;14307;51.718;8.938;2023-09-12T08:10:57;22.50;99.90
26691;DHT22;14307;51.718;8.938;2023-09-12T08:13:28;22.30;99.90
26691;DHT22;14307;51.718;8.938;2023-09-12T08:15:56;22.30;99.90
26691;DHT22;14307;51.718;8.938;2023-09-12T08:18:27;22.20;99.90
26691;DHT22;14307;51.718;8.938;2023-09-12T08:20:55;22.10;99.90
26691;DHT22;14307;51.718;8.938;2023-09-12T08:23:22;22.00;99.90
26691;DHT22;14307;51.718;8.938;2023-09-12T08:25:50;22.20;99.90
26691;DHT22;14307;51.718;8.938;2023-09-12T08:28:17;22.40;99.90
26691;DHT22;14307;51.718;8.938;2023-09-12T08:30:45;22.70;99.90
26691;DHT22;14307;51.718;8.938;2023-09-12T08:33:12;23.00;99.90
26691;DHT22;14307;51.718;8.938;2023-09-12T08:35:40;23.40;99.90
26691;DHT22;14307;51.718;8.938;2023-09-12T08:38:06;23.80;99.90
26691;DHT22;14307;51.718;8.938;2023-09-12T08:40:34;23.90;99.90
26691;DHT22;14307;51.718;8.938;2023-09-12T08:43:02;23.80;99.90
26691;DHT22;14307;51.718;8.938;2023-09-12T08:45:31;23.70;99.90
26691;DHT22;14307;51.718;8.938;2023-09-12T08:47:59;23.60;99.90
26691;DHT22;14307;51.718;8.938;2023-09-12T08:50:30;23.50;99.90
26691;DHT22;14307;51.718;8.938;2023-09-12T08:53:01;22.60;99.90
26691;DHT22;14307;51.718;8.938;2023-09-12T08:55:35;22.30;99.90
26691;DHT22;14307;51.718;8.938;2023-09-12T08:58:04;21.80;99.90
26691;DHT22;14307;51.718;8.938;2023-09-12T09:00:31;21.50;99.90
26691;DHT22;14307;51.718;8.938;2023-09-12T09:02:59;21.50;99.90
26691;DHT22;14307;51.718;8.938;2023-09-12T09:05:27;21.50;99.90
26691;DHT22;14307;51.718;8.938;2023-09-12T09:07:55;21.30;99.90
26691;DHT22;14307;51.718;8.938;2023-09-12T09:10:22;21.30;99.90
26691;DHT22;14307;51.718;8.938;2023-09-12T09:13:08;21.30;99.90
26691;DHT22;14307;51.718;8.938;2023-09-12T09:15:36;21.40;99.90
26691;DHT22;14307;51.718;8.938;2023-09-12T09:18:04;21.60;99.90
26691;DHT22;14307;51.718;8.938;2023-09-12T09:20:34;21.80;99.90
26691;DHT22;14307;51.718;8.938;2023-09-12T09:23:07;21.70;99.90
26691;DHT22;14307;51.718;8.938;2023-09-12T09:25:43;21.90;99.90
26691;DHT22;14307;51.718;8.938;2023-09-12T09:28:19;22.20;99.90
26691;DHT22;14307;51.718;8.938;2023-09-12T09:30:47;22.60;99.90
26691;DHT22;14307;51.718;8.938;2023-09-12T09:33:15;22.60;99.90
26691;DHT22;14307;51.718;8.938;2023-09-12T09:35:43;22.80;99.90
26691;DHT22;14307;51.718;8.938;2023-09-12T09:38:12;22.90;99.90
26691;DHT22;14307;51.718;8.938;2023-09-12T09:40:43;22.70;99.90
26691;DHT22;14307;51.718;8.938;2023-09-12T09:43:11;22.90;99.90
26691;DHT22;14307;51.718;8.938;2023-09-12T09:45:44;23.30;99.90
26691;DHT22;14307;51.718;8.938;2023-09-12T09:48:21;23.90;99.90
26691;DHT22;14307;51.718;8.938;2023-09-12T09:50:49;24.40;99.90
26691;DHT22;14307;51.718;8.938;2023-09-12T09:53:16;24.70;99.90
26691;DHT22;14307;51.718;8.938;2023-09-12T09:55:43;24.70;99.90
26691;DHT22;14307;51.718;8.938;2023-09-12T09:58:15;24.70;99.90
26691;DHT22;14307;51.718;8.938;2023-09-12T10:00:43;24.30;99.90
26691;DHT22;14307;51.718;8.938;2023-09-12T10:03:12;24.00;99.90
26691;DHT22;14307;51.718;8.938;2023-09-12T10:05:45;23.80;99.90
26691;DHT22;14307;51.718;8.938;2023-09-12T10:08:12;23.90;99.90
26691;DHT22;14307;51.718;8.938;2023-09-12T10:10:44;24.20;99.90
26691;DHT22;14307;51.718;8.938;2023-09-12T10:13:12;24.40;99.90
26691;DHT22;14307;51.718;8.938;2023-09-12T10:15:41;24.60;99.90
26691;DHT22;14307;51.718;8.938;2023-09-12T10:18:14;24.70;99.90
26691;DHT22;14307;51.718;8.938;2023-09-12T10:21:10;24.70;99.90
26691;DHT22;14307;51.718;8.938;2023-09-12T10:23:41;24.60;99.90
26691;DHT22;14307;51.718;8.938;2023-09-12T10:26:14;24.70;99.90
26691;DHT22;14307;51.718;8.938;2023-09-12T10:28:42;25.00;99.90
26691;DHT22;14307;51.718;8.938;2023-09-12T10:31:12;25.00;99.90
26691;DHT22;14307;51.718;8.938;2023-09-12T10:33:39;25.00;99.90
26691;DHT22;14307;51.718;8.938;2023-09-12T10:36:08;24.70;99.90
26691;DHT22;14307;51.718;8.938;2023-09-12T10:38:40;24.30;99.90
26691;DHT22;14307;51.718;8.938;2023-09-12T10:41:09;24.00;99.90
26691;DHT22;14307;51.718;8.938;2023-09-12T10:43:38;23.90;99.90
26691;DHT22;14307;51.718;8.938;2023-09-12T10:46:07;23.70;99.90
26691;DHT22;14307;51.718;8.938;2023-09-12T10:48:37;23.50;99.90
26691;DHT22;14307;51.718;8.938;2023-09-12T10:51:07;23.20;99.90
26691;DHT22;14307;51.718;8.938;2023-09-12T10:53:35;23.10;99.90
26691;DHT22;14307;51.718;8.938;2023-09-12T11:01:32;22.80;99.90
26691;DHT22;14307;51.718;8.938;2023-09-12T11:06:47;22.70;99.90
26691;DHT22;14307;51.718;8.938;2023-09-12T11:11:47;23.60;99.90
26691;DHT22;14307;51.718;8.938;2023-09-12T11:14:15;24.00;99.90
26691;DHT22;14307;51.718;8.938;2023-09-12T11:16:43;23.20;99.90
26691;DHT22;14307;51.718;8.938;2023-09-12T11:19:28;23.30;99.90
26691;DHT22;14307;51.718;8.938;2023-09-12T11:21:55;23.40;99.90
26691;DHT22;14307;51.718;8.938;2023-09-12T11:24:22;23.70;99.90
26691;DHT22;14307;51.718;8.938;2023-09-12T11:27:01;24.20;99.90
26691;DHT22;14307;51.718;8.938;2023-09-12T11:29:36;24.90;99.90
26691;DHT22;14307;51.718;8.938;2023-09-12T11:32:04;25.10;99.90
26691;DHT22;14307;51.718;8.938;2023-09-12T11:34:43;25.20;99.90
26691;DHT22;14307;51.718;8.938;2023-09-12T11:37:22;24.70;99.90
26691;DHT22;14307;51.718;8.938;2023-09-12T11:39:49;24.40;99.90
26691;DHT22;14307;51.718;8.938;2023-09-12T11:42:18;24.10;99.90
26691;DHT22;14307;51.718;8.938;2023-09-12T11:44:45;23.90;99.90
26691;DHT22;14307;51.718;8.938;2023-09-12T11:47:12;24.10;99.90
26691;DHT22;14307;51.718;8.938;2023-09-12T11:49:40;24.00;99.90
26691;DHT22;14307;51.718;8.938;2023-09-12T11:52:09;24.60;99.90
26691;DHT22;14307;51.718;8.938;2023-09-12T11:54:36;24.80;99.90
26691;DHT22;14307;51.718;8.938;2023-09-12T11:57:04;24.80;99.90
26691;DHT22;14307;51.718;8.938;2023-09-12T11:59:40;24.00;99.90
26691;DHT22;14307;51.718;8.938;2023-09-12T12:02:08;23.90;99.90
26691;DHT22;14307;51.718;8.938;2023-09-12T12:04:36;24.00;99.90
26691;DHT22;14307;51.718;8.938;2023-09-12T12:07:04;24.00;99.90
26691;DHT22;14307;51.718;8.938;2023-09-12T12:09:31;24.10;99.90
26691;DHT22;14307;51.718;8.938;2023-09-12T12:14:36;24.70;99.90
26691;DHT22;14307;51.718;8.938;2023-09-12T12:17:06;24.90;99.90
26691;DHT22;14307;51.718;8.938;2023-09-12T12:19:34;24.70;99.90
26691;DHT22;14307;51.718;8.938;2023-09-12T12:22:04;24.40;99.90
26691;DHT22;14307;51.718;8.938;2023-09-12T12:24:39;24.50;99.90
26691;DHT22;14307;51.718;8.938;2023-09-12T12:27:06;24.40;99.90
26691;DHT22;14307;51.718;8.938;2023-09-12T12:29:36;24.70;99.90
26691;DHT22;14307;51.718;8.938;2023-09-12T12:32:05;24.60;99.90
26691;DHT22;14307;51.718;8.938;2023-09-12T12:34:32;24.50;99.90
26691;DHT22;14307;51.718;8.938;2023-09-12T12:37:19;24.70;99.90
26691;DHT22;14307;51.718;8.938;2023-09-12T12:39:46;24.70;99.90
26691;DHT22;14307;51.718;8.938;2023-09-12T12:42:13;24.60;99.90
26691;DHT22;14307;51.718;8.938;2023-09-12T12:44:40;24.40;99.90
26691;DHT22;14307;51.718;8.938;2023-09-12T12:47:08;24.50;99.90
26691;DHT22;14307;51.718;8.938;2023-09-12T12:49:37;24.90;99.90
26691;DHT22;14307;51.718;8.938;2023-09-12T12:52:09;25.20;99.90
26691;DHT22;14307;51.718;8.938;2023-09-12T12:54:37;25.40;99.90
26691;DHT22;14307;51.718;8.938;2023-09-12T12:57:04;25.20;99.90
26691;DHT22;14307;51.718;8.938;2023-09-12T12:59:30;25.10;99.90
26691;DHT22;14307;51.718;8.938;2023-09-12T13:02:01;24.60;99.90
26691;DHT22;14307;51.718;8.938;2023-09-12T13:04:36;24.30;99.90
26691;DHT22;14307;51.718;8.938;2023-09-12T13:07:04;24.70;99.90
26691;DHT22;14307;51.718;8.938;2023-09-12T13:09:32;25.00;99.90
26691;DHT22;14307;51.718;8.938;2023-09-12T13:11:59;25.10;99.90
26691;DHT22;14307;51.718;8.938;2023-09-12T13:14:27;25.10;99.90
26691;DHT22;14307;51.718;8.938;2023-09-12T13:16:58;25.10;99.90
26691;DHT22;14307;51.718;8.938;2023-09-12T13:19:26;24.90;99.90
26691;DHT22;14307;51.718;8.938;2023-09-12T13:21:53;24.70;99.90
26691;DHT22;14307;51.718;8.938;2023-09-12T13:24:20;25.00;99.90
26691;DHT22;14307;51.718;8.938;2023-09-12T13:26:47;25.50;99.90
26691;DHT22;14307;51.718;8.938;2023-09-12T13:29:14;25.90;99.90
26691;DHT22;14307;51.718;8.938;2023-09-12T13:31:40;25.70;99.90
26691;DHT22;14307;51.718;8.938;2023-09-12T13:34:07;25.30;99.90
26691;DHT22;14307;51.718;8.938;2023-09-12T13:36:34;25.30;99.90
26691;DHT22;14307;51.718;8.938;2023-09-12T13:39:01;25.20;99.90
26691;DHT22;14307;51.718;8.938;2023-09-12T13:41:29;25.00;99.90
26691;DHT22;14307;51.718;8.938;2023-09-12T13:43:55;25.50;99.90
26691;DHT22;14307;51.718;8.938;2023-09-12T13:46:22;25.70;99.90
26691;DHT22;14307;51.718;8.938;2023-09-12T13:48:49;25.30;99.90
26691;DHT22;14307;51.718;8.938;2023-09-12T13:51:16;25.10;99.90
26691;DHT22;14307;51.718;8.938;2023-09-12T13:53:42;24.90;99.90
26691;DHT22;14307;51.718;8.938;2023-09-12T13:56:10;24.70;99.90
26691;DHT22;14307;51.718;8.938;2023-09-12T13:58:53;24.70;99.90
26691;DHT22;14307;51.718;8.938;2023-09-12T14:01:20;24.70;99.90
26691;DHT22;14307;51.718;8.938;2023-09-12T14:04:00;24.50;99.90
26691;DHT22;14307;51.718;8.938;2023-09-12T14:06:27;24.60;99.90
26691;DHT22;14307;51.718;8.938;2023-09-12T14:08:54;24.50;99.90
26691;DHT22;14307;51.718;8.938;2023-09-12T14:11:21;24.70;99.90
26691;DHT22;14307;51.718;8.938;2023-09-12T14:14:00;25.00;99.90
26691;DHT22;14307;51.718;8.938;2023-09-12T14:16:40;25.10;99.90
26691;DHT22;14307;51.718;8.938;2023-09-12T14:19:08;25.40;99.90
26691;DHT22;14307;51.718;8.938;2023-09-12T14:21:37;25.40;99.90
26691;DHT22;14307;51.718;8.938;2023-09-12T14:24:05;25.30;99.90
26691;DHT22;14307;51.718;8.938;2023-09-12T14:26:32;25.50;99.90
26691;DHT22;14307;51.718;8.938;2023-09-12T14:28:59;25.70;99.90
26691;DHT22;14307;51.718;8.938;2023-09-12T14:31:26;25.70;99.90
26691;DHT22;14307;51.718;8.938;2023-09-12T14:33:53;25.90;99.90
26691;DHT22;14307;51.718;8.938;2023-09-12T14:36:20;26.00;99.90
26691;DHT22;14307;51.718;8.938;2023-09-12T14:38:46;26.00;99.90
26691;DHT22;14307;51.718;8.938;2023-09-12T14:41:13;26.30;99.90
26691;DHT22;14307;51.718;8.938;2023-09-12T14:43:40;26.50;99.90
26691;DHT22;14307;51.718;8.938;2023-09-12T14:46:07;26.30;99.90
26691;DHT22;14307;51.718;8.938;2023-09-12T14:48:35;26.10;99.90
26691;DHT22;14307;51.718;8.938;2023-09-12T14:51:06;25.80;99.90
26691;DHT22;14307;51.718;8.938;2023-09-12T14:53:33;25.40;99.90
26691;DHT22;14307;51.718;8.938;2023-09-12T14:56:00;25.00;99.90
26691;DHT22;14307;51.718;8.938;2023-09-12T14:58:26;24.40;99.90
26691;DHT22;14307;51.718;8.938;2023-09-12T15:01:01;24.70;99.90
26691;DHT22;14307;51.718;8.938;2023-09-12T15:03:32;25.00;99.90
26691;DHT22;14307;51.718;8.938;2023-09-12T15:06:06;25.20;99.90
26691;DHT22;14307;51.718;8.938;2023-09-12T15:08:33;25.20;99.90
26691;DHT22;14307;51.718;8.938;2023-09-12T15:11:03;25.10;99.90
26691;DHT22;14307;51.718;8.938;2023-09-12T15:13:30;24.80;99.90
26691;DHT22;14307;51.718;8.938;2023-09-12T15:15:57;24.70;99.90
26691;DHT22;14307;51.718;8.938;2023-09-12T15:18:24;24.70;99.90
26691;DHT22;14307;51.718;8.938;2023-09-12T15:20:54;24.40;99.90
26691;DHT22;14307;51.718;8.938;2023-09-12T15:23:21;24.20;99.90
26691;DHT22;14307;51.718;8.938;2023-09-12T15:25:50;24.10;99.90
26691;DHT22;14307;51.718;8.938;2023-09-12T15:28:17;24.00;99.90
26691;DHT22;14307;51.718;8.938;2023-09-12T15:30:45;24.10;99.90
26691;DHT22;14307;51.718;8.938;2023-09-12T15:33:11;24.10;99.90
26691;DHT22;14307;51.718;8.938;2023-09-12T15:35:38;24.00;99.90
26691;DHT22;14307;51.718;8.938;2023-09-12T15:38:05;24.20;99.90
26691;DHT22;14307;51.718;8.938;2023-09-12T15:40:32;24.10;99.90
26691;DHT22;14307;51.718;8.938;2023-09-12T15:42:59;23.90;99.90
26691;DHT22;14307;51.718;8.938;2023-09-12T15:45:44;24.00;99.90
26691;DHT22;14307;51.718;8.938;2023-09-12T15:48:17;23.80;99.90
26691;DHT22;14307;51.718;8.938;2023-09-12T15:50:43;23.90;99.90